createdAt,value
2023-10-06T00:00:40.885Z,7.53
2023-10-06T00:03:12.199Z,6.80
2023-10-06T00:05:42.414Z,6.88
2023-10-06T00:08:12.310Z,8.07
2023-10-06T00:10:46.026Z,7.70
2023-10-06T00:13:33.364Z,7.25
2023-10-06T00:16:01.814Z,7.05
2023-10-06T00:18:29.355Z,7.30
2023-10-06T00:21:08.515Z,6.80
2023-10-06T00:23:40.236Z,6.32
2023-10-06T00:26:10.279Z,7.43
2023-10-06T00:28:37.789Z,6.60
2023-10-06T00:31:09.733Z,7.10
2023-10-06T00:33:42.584Z,7.88
2023-10-06T00:36:15.606Z,7.80
2023-10-06T00:38:46.952Z,7.25
2023-10-06T00:41:16.998Z,7.88
2023-10-06T00:43:48.235Z,7.65
2023-10-06T00:46:16.129Z,8.20
2023-10-06T00:48:45.764Z,7.93
2023-10-06T00:51:20.630Z,7.55
2023-10-06T00:53:48.576Z,7.85
2023-10-06T00:56:18.428Z,8.30
2023-10-06T00:58:46.066Z,8.60
2023-10-06T01:01:18.621Z,9.20
2023-10-06T01:04:02.120Z,8.90
2023-10-06T01:06:37.547Z,9.05
2023-10-06T01:09:13.472Z,8.48
2023-10-06T01:11:48.600Z,9.60
2023-10-06T01:16:44.179Z,10.57
2023-10-06T01:19:34.292Z,10.73
2023-10-06T01:22:23.403Z,11.98
2023-10-06T01:24:50.928Z,13.02
2023-10-06T01:27:17.901Z,14.43
2023-10-06T01:29:46.521Z,15.02
2023-10-06T01:32:17.040Z,14.13
2023-10-06T01:34:45.658Z,14.38
2023-10-06T01:37:12.681Z,14.98
2023-10-06T01:39:40.309Z,16.27
2023-10-06T01:42:18.463Z,14.07
2023-10-06T01:44:45.886Z,13.77
2023-10-06T01:47:13.208Z,14.60
2023-10-06T01:49:40.467Z,13.60
2023-10-06T01:52:10.268Z,13.20
2023-10-06T01:54:37.855Z,12.77
2023-10-06T01:57:08.317Z,11.43
2023-10-06T01:59:35.514Z,12.25
2023-10-06T02:02:03.417Z,10.57
2023-10-06T02:04:41.410Z,10.30
2023-10-06T02:07:12.031Z,9.57
2023-10-06T02:09:39.371Z,9.77
2023-10-06T02:12:06.835Z,9.63
2023-10-06T02:14:33.744Z,8.98
2023-10-06T02:17:06.478Z,7.97
2023-10-06T02:19:35.222Z,8.00
2023-10-06T02:22:02.198Z,8.63
2023-10-06T02:24:29.134Z,7.13
2023-10-06T02:26:59.600Z,8.07
2023-10-06T02:29:28.070Z,7.38
2023-10-06T02:32:02.474Z,6.88
2023-10-06T02:34:31.025Z,6.60
2023-10-06T02:36:58.428Z,6.38
2023-10-06T02:39:29.696Z,6.07
2023-10-06T02:41:58.841Z,5.90
2023-10-06T02:44:26.409Z,5.93
2023-10-06T02:46:56.751Z,6.32
2023-10-06T02:49:33.129Z,5.95
2023-10-06T02:52:14.422Z,6.15
2023-10-06T02:54:47.581Z,6.30
2023-10-06T02:57:21.187Z,5.32
2023-10-06T02:59:49.562Z,6.00
2023-10-06T03:02:21.154Z,5.78
2023-10-06T03:04:56.023Z,5.35
2023-10-06T03:07:23.531Z,5.75
2023-10-06T03:09:50.334Z,5.78
2023-10-06T03:12:21.680Z,6.22
2023-10-06T03:14:48.577Z,5.78
2023-10-06T03:17:15.587Z,6.13
2023-10-06T03:19:42.620Z,6.20
2023-10-06T03:22:11.427Z,6.68
2023-10-06T03:24:46.332Z,5.82
2023-10-06T03:27:15.855Z,6.53
2023-10-06T03:29:52.430Z,6.55
2023-10-06T03:32:40.901Z,7.32
2023-10-06T03:35:24.839Z,6.10
2023-10-06T03:38:08.932Z,6.63
2023-10-06T03:40:45.773Z,6.95
2023-10-06T03:43:16.252Z,6.63
2023-10-06T03:45:47.108Z,7.93
2023-10-06T03:48:14.011Z,6.80
2023-10-06T03:50:44.440Z,6.68
2023-10-06T03:53:13.975Z,6.38
2023-10-06T03:55:41.572Z,7.45
2023-10-06T03:58:10.076Z,6.60
2023-10-06T04:00:39.975Z,6.78
2023-10-06T04:03:16.288Z,6.22
2023-10-06T04:05:45.654Z,7.00
2023-10-06T04:08:15.607Z,6.97
2023-10-06T04:10:46.980Z,6.80
2023-10-06T04:13:14.062Z,6.63
2023-10-06T04:15:47.264Z,6.07
2023-10-06T04:18:17.982Z,7.35
2023-10-06T04:20:47.186Z,6.40
2023-10-06T04:23:15.928Z,6.68
2023-10-06T04:25:42.908Z,6.68
2023-10-06T04:28:14.550Z,6.30
2023-10-06T04:30:46.769Z,6.60
2023-10-06T04:33:15.488Z,7.38
2023-10-06T04:35:49.166Z,6.70
2023-10-06T04:38:16.374Z,6.63
2023-10-06T04:40:43.555Z,6.63
2023-10-06T04:43:14.746Z,6.93
2023-10-06T04:45:41.666Z,6.72
2023-10-06T04:48:09.391Z,7.82
2023-10-06T04:50:36.894Z,6.55
2023-10-06T04:53:07.683Z,6.85
2023-10-06T04:55:41.615Z,6.78
2023-10-06T04:58:15.453Z,8.00
2023-10-06T05:00:43.161Z,7.22
2023-10-06T05:03:12.049Z,6.55
2023-10-06T05:05:39.885Z,7.43
2023-10-06T05:08:10.970Z,7.70
2023-10-06T05:10:38.497Z,8.43
2023-10-06T05:13:07.449Z,6.65
2023-10-06T05:15:38.389Z,6.78
2023-10-06T05:18:06.160Z,7.38
2023-10-06T05:20:34.970Z,6.78
2023-10-06T05:23:07.040Z,7.10
2023-10-06T05:25:38.270Z,7.63
2023-10-06T05:28:06.070Z,7.13
2023-10-06T05:30:33.080Z,7.15
2023-10-06T05:33:01.346Z,7.32
2023-10-06T05:35:30.490Z,7.03
2023-10-06T05:37:58.798Z,7.70
2023-10-06T05:40:26.549Z,7.10
2023-10-06T05:42:53.382Z,6.93
2023-10-06T05:45:21.066Z,7.18
2023-10-06T05:47:49.961Z,6.85
2023-10-06T05:50:20.126Z,7.18
2023-10-06T05:52:53.015Z,6.95
2023-10-06T05:55:20.824Z,6.40
2023-10-06T05:57:57.038Z,6.60
2023-10-06T06:00:28.850Z,6.38
2023-10-06T06:02:59.340Z,7.00
2023-10-06T06:05:30.819Z,6.25
2023-10-06T06:08:01.564Z,6.53
2023-10-06T06:10:31.019Z,6.10
2023-10-06T06:12:58.334Z,6.28
2023-10-06T06:15:27.458Z,6.60
2023-10-06T06:17:55.084Z,5.50
2023-10-06T06:20:25.497Z,5.97
2023-10-06T06:23:13.358Z,6.38
2023-10-06T06:25:41.564Z,6.05
2023-10-06T06:28:09.325Z,6.15
2023-10-06T06:30:38.272Z,5.63
2023-10-06T06:33:06.246Z,5.57
2023-10-06T06:35:36.650Z,6.13
2023-10-06T06:38:06.196Z,5.38
2023-10-06T06:40:35.512Z,5.30
2023-10-06T06:43:02.738Z,5.18
2023-10-06T06:45:33.308Z,5.65
2023-10-06T06:48:04.120Z,5.53
2023-10-06T06:50:30.955Z,5.10
2023-10-06T06:52:58.293Z,4.93
2023-10-06T06:55:25.592Z,5.15
2023-10-06T06:57:56.783Z,4.72
2023-10-06T07:00:25.476Z,4.32
2023-10-06T07:02:54.113Z,4.43
2023-10-06T07:05:22.720Z,5.18
2023-10-06T07:07:53.705Z,4.20
2023-10-06T07:10:23.620Z,4.75
2023-10-06T07:12:51.587Z,4.25
2023-10-06T07:15:25.574Z,3.78
2023-10-06T07:17:55.882Z,4.85
2023-10-06T07:20:25.220Z,4.40
2023-10-06T07:22:55.671Z,3.67
2023-10-06T07:25:25.596Z,4.03
2023-10-06T07:27:54.433Z,4.15
2023-10-06T07:30:23.970Z,3.72
2023-10-06T07:32:55.781Z,3.75
2023-10-06T07:35:48.382Z,4.05
2023-10-06T07:38:15.662Z,3.97
2023-10-06T07:40:43.584Z,3.75
2023-10-06T07:43:11.817Z,3.35
2023-10-06T07:45:39.158Z,3.67
2023-10-06T07:48:10.476Z,3.78
2023-10-06T07:50:39.117Z,3.72
2023-10-06T07:53:07.289Z,3.80
2023-10-06T07:55:34.035Z,3.45
2023-10-06T07:58:01.601Z,3.95
2023-10-06T08:00:29.194Z,3.50
2023-10-06T08:03:00.389Z,4.20
2023-10-06T08:05:30.604Z,4.15
2023-10-06T08:07:59.752Z,3.33
2023-10-06T08:10:27.281Z,3.70
2023-10-06T08:13:03.432Z,3.50
2023-10-06T08:15:33.684Z,3.40
2023-10-06T08:18:01.383Z,3.60
2023-10-06T08:20:29.083Z,3.47
2023-10-06T08:22:58.041Z,2.80
2023-10-06T08:25:26.710Z,3.13
2023-10-06T08:27:54.243Z,3.47
2023-10-06T08:30:21.673Z,3.33
2023-10-06T08:32:54.155Z,4.10
2023-10-06T08:35:22.050Z,3.00
2023-10-06T08:37:51.338Z,3.20
2023-10-06T08:40:20.854Z,3.88
2023-10-06T08:42:52.646Z,3.15
2023-10-06T08:45:21.398Z,2.80
2023-10-06T08:48:02.767Z,2.80
2023-10-06T08:50:34.752Z,3.40
2023-10-06T08:53:05.912Z,2.83
2023-10-06T08:55:34.256Z,3.63
2023-10-06T08:58:03.905Z,3.30
2023-10-06T09:00:35.503Z,2.92
2023-10-06T09:03:09.804Z,3.20
2023-10-06T09:05:47.281Z,3.17
2023-10-06T09:08:18.776Z,2.90
2023-10-06T09:10:52.740Z,2.78
2023-10-06T09:13:22.020Z,3.00
2023-10-06T09:16:17.642Z,3.58
2023-10-06T09:18:44.781Z,2.97
2023-10-06T09:21:22.121Z,2.97
2023-10-06T09:23:50.685Z,2.95
2023-10-06T09:26:29.202Z,2.70
2023-10-06T09:28:57.788Z,2.80
2023-10-06T09:31:45.815Z,2.42
2023-10-06T09:34:24.086Z,2.60
2023-10-06T09:36:51.274Z,3.08
2023-10-06T09:39:34.976Z,3.03
2023-10-06T09:42:02.722Z,3.20
2023-10-06T09:44:31.850Z,2.92
2023-10-06T09:47:02.152Z,2.53
2023-10-06T09:49:29.927Z,2.78
2023-10-06T09:52:02.508Z,3.03
2023-10-06T09:54:30.385Z,2.70
2023-10-06T09:56:57.589Z,3.20
2023-10-06T09:59:27.464Z,2.65
2023-10-06T10:01:55.393Z,3.10
2023-10-06T10:04:25.300Z,3.03
2023-10-06T10:06:52.658Z,2.30
2023-10-06T10:09:22.132Z,2.75
2023-10-06T10:12:15.070Z,2.55
2023-10-06T10:15:23.007Z,3.03
2023-10-06T10:18:21.378Z,3.05
2023-10-06T10:20:49.168Z,2.60
2023-10-06T10:23:19.302Z,3.03
2023-10-06T10:25:46.394Z,3.00
2023-10-06T10:28:28.409Z,2.95
2023-10-06T10:31:00.847Z,2.40
2023-10-06T10:33:31.092Z,2.47
2023-10-06T10:36:17.095Z,2.65
2023-10-06T10:38:44.446Z,3.05
2023-10-06T10:41:12.628Z,2.83
2023-10-06T10:43:42.218Z,2.65
2023-10-06T10:46:10.437Z,2.65
2023-10-06T10:48:48.683Z,2.50
2023-10-06T10:51:16.404Z,2.50
2023-10-06T10:53:45.189Z,3.00
2023-10-06T10:56:15.994Z,2.88
2023-10-06T10:58:45.880Z,2.55
2023-10-06T11:01:33.006Z,3.03
2023-10-06T11:04:19.245Z,2.70
2023-10-06T11:06:50.916Z,2.80
2023-10-06T11:09:31.911Z,2.90
2023-10-06T11:12:22.686Z,2.90
2023-10-06T11:14:52.500Z,3.00
2023-10-06T11:17:23.723Z,2.95
2023-10-06T11:20:14.282Z,3.10
2023-10-06T11:22:51.541Z,2.60
2023-10-06T11:25:18.447Z,3.08
2023-10-06T11:27:46.984Z,3.80
2023-10-06T11:30:18.476Z,3.05
2023-10-06T11:32:45.396Z,3.10
2023-10-06T11:35:12.899Z,3.15
2023-10-06T11:37:40.281Z,2.97
2023-10-06T11:40:07.991Z,2.80
2023-10-06T11:42:36.560Z,3.38
2023-10-06T11:45:12.846Z,3.40
2023-10-06T11:47:41.142Z,3.13
2023-10-06T11:50:14.344Z,3.13
2023-10-06T11:52:45.176Z,3.05
2023-10-06T11:55:15.832Z,5.00
2023-10-06T11:57:47.396Z,4.03
2023-10-06T12:00:18.680Z,3.13
2023-10-06T12:02:46.687Z,3.28
2023-10-06T12:05:15.010Z,3.15
2023-10-06T12:07:42.568Z,3.55
2023-10-06T12:10:10.029Z,3.20
2023-10-06T12:12:37.428Z,3.20
2023-10-06T12:15:04.639Z,3.15
2023-10-06T12:17:32.859Z,3.63
2023-10-06T12:20:01.711Z,3.17
2023-10-06T12:27:32.393Z,3.20
2023-10-06T12:30:03.747Z,3.75
2023-10-06T12:32:32.000Z,2.80
2023-10-06T12:35:01.062Z,3.33
2023-10-06T12:37:27.985Z,3.13
2023-10-06T12:39:56.330Z,3.13
2023-10-06T12:42:23.074Z,3.20
2023-10-06T12:44:49.901Z,3.15
2023-10-06T12:47:16.861Z,3.13
2023-10-06T12:49:46.981Z,2.75
2023-10-06T12:52:14.172Z,2.90
2023-10-06T12:54:40.921Z,3.00
2023-10-06T12:57:07.682Z,2.78
2023-10-06T12:59:34.474Z,3.05
2023-10-06T13:02:05.052Z,3.22
2023-10-06T13:04:32.063Z,3.28
2023-10-06T13:07:01.652Z,2.92
2023-10-06T13:09:28.837Z,3.35
2023-10-06T13:11:55.673Z,3.42
2023-10-06T13:14:23.752Z,3.25
2023-10-06T13:16:51.338Z,3.45
2023-10-06T13:19:18.158Z,3.25
2023-10-06T13:21:44.966Z,3.20
2023-10-06T13:24:13.867Z,3.40
2023-10-06T13:26:44.620Z,3.13
2023-10-06T13:29:11.843Z,3.28
2023-10-06T13:31:38.671Z,2.90
2023-10-06T13:34:05.686Z,3.30
2023-10-06T13:36:32.756Z,2.97
2023-10-06T13:38:59.737Z,4.00
2023-10-06T13:41:27.748Z,3.15
2023-10-06T13:43:55.335Z,3.20
2023-10-06T13:46:22.243Z,2.90
2023-10-06T13:48:49.267Z,3.40
2023-10-06T13:51:16.442Z,2.85
2023-10-06T13:53:44.485Z,3.42
2023-10-06T13:56:12.087Z,3.22
2023-10-06T13:58:39.012Z,3.38
2023-10-06T14:01:05.962Z,3.25
2023-10-06T14:03:33.047Z,3.20
2023-10-06T14:06:01.626Z,3.35
2023-10-06T14:08:30.037Z,3.47
2023-10-06T14:11:00.116Z,3.05
2023-10-06T14:13:28.899Z,3.47
2023-10-06T14:18:44.030Z,3.13
2023-10-06T14:21:12.882Z,3.97
2023-10-06T14:23:48.237Z,4.05
2023-10-06T14:26:15.326Z,3.25
2023-10-06T14:28:42.210Z,2.88
2023-10-06T14:31:26.708Z,3.92
2023-10-06T14:34:19.172Z,3.28
2023-10-06T14:36:47.777Z,3.22
2023-10-06T14:39:33.805Z,3.80
2023-10-06T14:42:19.251Z,3.75
2023-10-06T14:47:31.643Z,4.00
2023-10-06T14:49:59.757Z,3.78
2023-10-06T14:52:32.505Z,4.05
2023-10-06T14:54:59.309Z,3.92
2023-10-06T14:57:27.874Z,3.30
2023-10-06T14:59:56.542Z,3.88
2023-10-06T15:02:23.667Z,4.38
2023-10-06T15:04:51.268Z,3.80
2023-10-06T15:07:18.131Z,3.72
2023-10-06T15:09:45.401Z,4.40
2023-10-06T15:12:15.583Z,3.97
2023-10-06T15:14:42.680Z,3.53
2023-10-06T15:17:12.528Z,3.65
2023-10-06T15:19:39.588Z,3.95
2023-10-06T15:22:10.230Z,3.92
2023-10-06T15:24:38.291Z,3.65
2023-10-06T15:27:07.815Z,3.90
2023-10-06T15:29:35.267Z,3.50
2023-10-06T15:32:05.649Z,3.08
2023-10-06T15:34:35.872Z,3.45
2023-10-06T15:37:03.078Z,3.92
2023-10-06T15:39:33.271Z,3.33
2023-10-06T15:42:00.506Z,4.07
2023-10-06T15:44:28.672Z,3.67
2023-10-06T15:46:58.504Z,4.40
2023-10-06T15:49:25.552Z,4.10
2023-10-06T15:51:53.599Z,3.35
2023-10-06T15:54:20.438Z,3.40
2023-10-06T15:56:48.420Z,3.40
2023-10-06T15:59:16.461Z,3.47
2023-10-06T16:01:44.879Z,3.50
2023-10-06T16:04:14.676Z,3.67
2023-10-06T16:06:42.831Z,3.58
2023-10-06T16:09:10.985Z,3.40
2023-10-06T16:11:41.328Z,3.30
2023-10-06T16:14:08.584Z,3.30
2023-10-06T16:16:38.228Z,3.55
2023-10-06T16:19:05.475Z,3.85
2023-10-06T16:21:33.892Z,4.30
2023-10-06T16:24:00.986Z,3.33
2023-10-06T16:26:31.153Z,3.95
2023-10-06T16:28:59.346Z,3.67
2023-10-06T16:31:27.213Z,4.00
2023-10-06T16:33:55.307Z,3.90
2023-10-06T16:36:22.957Z,3.40
2023-10-06T16:38:51.984Z,3.80
2023-10-06T16:41:22.670Z,3.78
2023-10-06T16:43:58.792Z,4.22
2023-10-06T16:46:26.383Z,3.83
2023-10-06T16:48:54.279Z,4.20
2023-10-06T16:51:22.090Z,3.97
2023-10-06T16:53:50.032Z,3.78
2023-10-06T16:56:19.606Z,4.07
2023-10-06T16:58:47.509Z,4.30
2023-10-06T17:01:14.616Z,3.28
2023-10-06T17:03:41.782Z,3.80
2023-10-06T17:06:12.754Z,3.38
2023-10-06T17:08:41.213Z,4.07
2023-10-06T17:11:23.440Z,3.58
2023-10-06T17:13:50.588Z,3.20
2023-10-06T17:16:17.528Z,3.88
2023-10-06T17:18:44.430Z,3.60
2023-10-06T17:21:15.210Z,3.35
2023-10-06T17:23:45.543Z,4.28
2023-10-06T17:26:14.305Z,3.80
2023-10-06T17:28:41.679Z,4.15
2023-10-06T17:31:16.466Z,4.07
2023-10-06T17:33:44.103Z,3.58
2023-10-06T17:36:11.230Z,4.20
2023-10-06T17:38:38.274Z,3.85
2023-10-06T17:41:12.078Z,4.43
2023-10-06T17:43:39.404Z,3.92
2023-10-06T17:46:06.403Z,4.63
2023-10-06T17:48:33.392Z,4.40
2023-10-06T17:51:00.366Z,3.40
2023-10-06T17:53:27.313Z,3.63
2023-10-06T17:55:54.687Z,4.30
2023-10-06T17:58:22.069Z,3.92
2023-10-06T18:00:49.911Z,3.90
2023-10-06T18:03:20.019Z,3.92
2023-10-06T18:05:49.445Z,4.25
2023-10-06T18:08:17.788Z,4.50
2023-10-06T18:10:46.019Z,3.85
2023-10-06T18:13:13.239Z,3.90
2023-10-06T18:15:40.370Z,4.25
2023-10-06T18:18:07.805Z,4.18
2023-10-06T18:20:40.866Z,4.55
2023-10-06T18:23:08.490Z,3.83
2023-10-06T18:25:36.527Z,4.35
2023-10-06T18:28:07.048Z,4.50
2023-10-06T18:30:35.611Z,4.10
2023-10-06T18:33:02.703Z,4.35
2023-10-06T18:35:29.966Z,4.65
2023-10-06T18:37:57.024Z,3.90
2023-10-06T18:40:23.994Z,4.07
2023-10-06T18:42:51.029Z,4.10
2023-10-06T18:45:18.456Z,4.10
2023-10-06T18:47:45.480Z,4.03
2023-10-06T18:50:22.476Z,4.15
2023-10-06T18:52:49.887Z,4.70
2023-10-06T18:55:19.008Z,4.60
2023-10-06T18:57:49.842Z,4.35
2023-10-06T19:00:17.014Z,3.83
2023-10-06T19:02:44.335Z,4.55
2023-10-06T19:05:11.465Z,4.35
2023-10-06T19:07:39.369Z,4.13
2023-10-06T19:10:10.869Z,4.32
2023-10-06T19:12:38.200Z,4.68
2023-10-06T19:15:12.648Z,4.82
2023-10-06T19:17:39.954Z,4.85
2023-10-06T19:20:10.076Z,4.25
2023-10-06T19:22:39.041Z,4.30
2023-10-06T19:25:10.384Z,4.20
2023-10-06T19:27:37.554Z,4.57
2023-10-06T19:30:06.235Z,4.75
2023-10-06T19:32:34.839Z,4.55
2023-10-06T19:35:08.229Z,4.28
2023-10-06T19:37:41.729Z,4.85
2023-10-06T19:40:10.583Z,4.20
2023-10-06T19:42:40.841Z,4.82
2023-10-06T19:45:08.176Z,4.43
2023-10-06T19:47:35.161Z,4.43
2023-10-06T19:50:12.681Z,4.60
2023-10-06T19:52:40.999Z,4.72
2023-10-06T19:55:09.185Z,4.50
2023-10-06T19:57:37.113Z,4.80
2023-10-06T20:00:12.254Z,4.65
2023-10-06T20:02:42.297Z,4.65
2023-10-06T20:05:12.767Z,4.75
2023-10-06T20:07:40.457Z,5.18
2023-10-06T20:10:09.939Z,4.88
2023-10-06T20:12:36.810Z,5.35
2023-10-06T20:15:05.900Z,4.95
2023-10-06T20:17:33.125Z,4.80
2023-10-06T20:20:00.272Z,5.15
2023-10-06T20:22:27.655Z,4.90
2023-10-06T20:24:54.729Z,4.85
2023-10-06T20:27:22.589Z,5.13
2023-10-06T20:29:49.734Z,5.40
2023-10-06T20:32:16.780Z,5.32
2023-10-06T20:34:43.788Z,5.18
2023-10-06T20:37:11.202Z,5.22
2023-10-06T20:39:38.357Z,6.00
2023-10-06T20:42:06.227Z,5.13
2023-10-06T20:44:33.543Z,4.72
2023-10-06T20:47:00.874Z,5.40
2023-10-06T20:49:28.782Z,4.72
2023-10-06T20:51:56.094Z,4.95
2023-10-06T20:54:23.407Z,5.28
2023-10-06T20:56:50.677Z,4.95
2023-10-06T20:59:18.349Z,5.15
2023-10-06T21:01:48.134Z,5.15
2023-10-06T21:04:15.897Z,5.45
2023-10-06T21:06:43.236Z,5.07
2023-10-06T21:09:10.983Z,5.85
2023-10-06T21:11:41.443Z,5.50
2023-10-06T21:14:13.593Z,6.05
2023-10-06T21:16:40.970Z,5.38
2023-10-06T21:19:08.568Z,4.90
2023-10-06T21:21:35.818Z,5.07
2023-10-06T21:24:03.223Z,6.00
2023-10-06T21:26:30.367Z,6.10
2023-10-06T21:28:57.537Z,7.03
2023-10-06T21:31:25.226Z,5.53
2023-10-06T21:33:52.385Z,6.22
2023-10-06T21:36:20.375Z,5.90
2023-10-06T21:38:50.749Z,5.95
2023-10-06T21:41:18.012Z,5.80
2023-10-06T21:43:45.207Z,5.85
2023-10-06T21:46:13.273Z,5.88
2023-10-06T21:48:40.686Z,6.07
2023-10-06T21:51:08.107Z,6.65
2023-10-06T21:53:35.278Z,5.88
2023-10-06T21:56:13.800Z,5.53
2023-10-06T21:58:41.943Z,6.22
2023-10-06T22:01:15.191Z,5.72
2023-10-06T22:03:42.856Z,6.15
2023-10-06T22:06:11.490Z,5.70
2023-10-06T22:08:38.727Z,5.78
2023-10-06T22:11:06.671Z,6.10
2023-10-06T22:13:34.188Z,6.40
2023-10-06T22:16:01.647Z,6.20
2023-10-06T22:18:31.773Z,6.35
2023-10-06T22:20:58.967Z,6.10
2023-10-06T22:23:26.012Z,6.68
2023-10-06T22:25:53.177Z,6.10
2023-10-06T22:28:21.457Z,6.20
2023-10-06T22:30:50.221Z,6.15
2023-10-06T22:33:17.640Z,6.55
2023-10-06T22:35:45.159Z,6.70
2023-10-06T22:38:12.306Z,5.82
2023-10-06T22:40:40.992Z,6.55
2023-10-06T22:43:09.084Z,6.72
2023-10-06T22:45:39.270Z,6.50
2023-10-06T22:48:06.851Z,6.88
2023-10-06T22:50:34.487Z,6.20
2023-10-06T22:53:01.748Z,6.05
2023-10-06T22:55:30.498Z,5.97
2023-10-06T22:57:58.622Z,5.90
2023-10-06T23:00:26.757Z,5.80
2023-10-06T23:02:55.266Z,6.38
2023-10-06T23:05:24.938Z,6.03
2023-10-06T23:07:52.792Z,5.90
2023-10-06T23:10:23.811Z,6.22
2023-10-06T23:12:52.281Z,6.22
2023-10-06T23:15:21.040Z,6.72
2023-10-06T23:17:48.190Z,6.32
2023-10-06T23:20:22.057Z,6.43
2023-10-06T23:22:54.689Z,6.05
2023-10-06T23:25:23.833Z,6.88
2023-10-06T23:27:52.993Z,6.63
2023-10-06T23:30:20.877Z,6.40
2023-10-06T23:32:50.589Z,6.32
2023-10-06T23:35:20.798Z,6.53
2023-10-06T23:37:48.155Z,7.25
2023-10-06T23:40:22.817Z,6.72
2023-10-06T23:42:53.323Z,6.63
2023-10-06T23:45:20.362Z,6.57
2023-10-06T23:47:50.276Z,6.78
2023-10-06T23:50:18.472Z,6.55
2023-10-06T23:52:52.880Z,7.47
2023-10-06T23:55:23.401Z,6.68
2023-10-06T23:57:55.459Z,6.55
